Terminal Aerodrome Forecast
Issued by NWS Quad Cities IA IL

Home | Current Version | Previous Version | Text Only | Print | Product List | Glossary On
Versions: 1 2 3 4 5 6 7 8 9 10 11 12 13 14 15 16 17 18 19 20 21 22
681
FTUS43 KDVN 272323
TAFDBQ
TAF
KDBQ 272323Z 2800/2824 VRB03KT P6SM BKN250
     FM281000 02005KT 4SM BR SCT035 SCT120
     FM281300 03006KT P6SM BKN035=

USA.gov is the U.S. government's official web portal to all federal, state and local government web resources and services.